Peell, Washington
Current Conditions -  °F | °C
As of 10:55 PM on Sunday 21 Dec 2014 (Local Time) from KCLS Reporting Station
Overcast Overcast  
Wind Chill: 50°   Ceiling: 2000
Heat Index: 50°   Visibility: 10mi
Dew Point: 50°   Wind: 5mph
Humidity: 100%   Direction: 180°S
Pressure: 30.14"   Gusts: NA
Location:  46.4795°N, 123.258°W
Report Text: KCLS 220655Z AUTO 18004KT 10SM BKN020 OVC025 10/10 A3014 RMK AO2
Loading
Personal Weather Stations






























Interactive Weather Map New forecast layout! Learn more

10-Day Weather Forecast

Advertisements
Track Severe Weather on mobile